sensor_id;sensor_type;location;lat;lon;timestamp;P1;durP1;ratioP1;P2;durP2;ratioP2
2320;SDS011;15376;48.540;9.268;2023-11-18T00:01:43;4.70;;;4.30;;
2320;SDS011;15376;48.540;9.268;2023-11-18T00:04:09;4.27;;;3.40;;
2320;SDS011;15376;48.540;9.268;2023-11-18T00:06:40;4.90;;;4.00;;
2320;SDS011;15376;48.540;9.268;2023-11-18T00:09:09;4.70;;;4.30;;
2320;SDS011;15376;48.540;9.268;2023-11-18T00:11:39;4.00;;;3.60;;
2320;SDS011;15376;48.540;9.268;2023-11-18T00:14:05;3.73;;;3.43;;
2320;SDS011;15376;48.540;9.268;2023-11-18T00:16:32;4.23;;;3.83;;
2320;SDS011;15376;48.540;9.268;2023-11-18T00:18:57;5.10;;;4.33;;
2320;SDS011;15376;48.540;9.268;2023-11-18T00:21:26;4.30;;;4.00;;
2320;SDS011;15376;48.540;9.268;2023-11-18T00:23:52;4.20;;;3.90;;
2320;SDS011;15376;48.540;9.268;2023-11-18T00:26:18;5.10;;;4.20;;
2320;SDS011;15376;48.540;9.268;2023-11-18T00:28:43;4.50;;;4.10;;
2320;SDS011;15376;48.540;9.268;2023-11-18T00:31:09;4.53;;;4.20;;
2320;SDS011;15376;48.540;9.268;2023-11-18T00:33:34;3.90;;;3.53;;
2320;SDS011;15376;48.540;9.268;2023-11-18T00:35:59;4.40;;;3.97;;
2320;SDS011;15376;48.540;9.268;2023-11-18T00:38:25;3.93;;;3.63;;
2320;SDS011;15376;48.540;9.268;2023-11-18T00:40:51;4.50;;;4.10;;
2320;SDS011;15376;48.540;9.268;2023-11-18T00:43:16;5.00;;;3.97;;
2320;SDS011;15376;48.540;9.268;2023-11-18T00:45:42;4.50;;;4.20;;
2320;SDS011;15376;48.540;9.268;2023-11-18T00:48:08;4.57;;;4.10;;
2320;SDS011;15376;48.540;9.268;2023-11-18T00:50:34;3.97;;;3.63;;
2320;SDS011;15376;48.540;9.268;2023-11-18T00:52:59;4.57;;;4.17;;
2320;SDS011;15376;48.540;9.268;2023-11-18T00:55:24;3.73;;;3.43;;
2320;SDS011;15376;48.540;9.268;2023-11-18T00:57:50;4.67;;;4.27;;
2320;SDS011;15376;48.540;9.268;2023-11-18T01:00:15;4.50;;;4.10;;
2320;SDS011;15376;48.540;9.268;2023-11-18T01:02:47;4.10;;;3.80;;
2320;SDS011;15376;48.540;9.268;2023-11-18T01:05:14;4.63;;;4.23;;
2320;SDS011;15376;48.540;9.268;2023-11-18T01:07:40;4.10;;;3.80;;
2320;SDS011;15376;48.540;9.268;2023-11-18T01:10:06;3.53;;;3.30;;
2320;SDS011;15376;48.540;9.268;2023-11-18T01:12:32;3.33;;;3.03;;
2320;SDS011;15376;48.540;9.268;2023-11-18T01:14:57;3.97;;;3.67;;
2320;SDS011;15376;48.540;9.268;2023-11-18T01:17:23;4.67;;;4.10;;
2320;SDS011;15376;48.540;9.268;2023-11-18T01:19:49;4.03;;;3.73;;
2320;SDS011;15376;48.540;9.268;2023-11-18T01:22:14;4.13;;;3.50;;
2320;SDS011;15376;48.540;9.268;2023-11-18T01:24:39;4.57;;;3.47;;
2320;SDS011;15376;48.540;9.268;2023-11-18T01:27:05;5.73;;;3.93;;
2320;SDS011;15376;48.540;9.268;2023-11-18T01:29:34;4.97;;;4.57;;
2320;SDS011;15376;48.540;9.268;2023-11-18T01:32:00;4.00;;;3.60;;
2320;SDS011;15376;48.540;9.268;2023-11-18T01:34:26;3.73;;;3.43;;
2320;SDS011;15376;48.540;9.268;2023-11-18T01:36:53;4.43;;;3.70;;
2320;SDS011;15376;48.540;9.268;2023-11-18T01:39:18;3.93;;;3.63;;
2320;SDS011;15376;48.540;9.268;2023-11-18T01:41:44;6.73;;;4.40;;
2320;SDS011;15376;48.540;9.268;2023-11-18T01:44:10;4.80;;;4.40;;
2320;SDS011;15376;48.540;9.268;2023-11-18T01:46:38;5.03;;;3.90;;
2320;SDS011;15376;48.540;9.268;2023-11-18T01:49:05;4.40;;;4.00;;
2320;SDS011;15376;48.540;9.268;2023-11-18T01:51:32;4.60;;;4.17;;
2320;SDS011;15376;48.540;9.268;2023-11-18T01:54:00;4.50;;;4.10;;
2320;SDS011;15376;48.540;9.268;2023-11-18T01:56:27;4.40;;;4.00;;
2320;SDS011;15376;48.540;9.268;2023-11-18T01:58:53;5.17;;;4.07;;
2320;SDS011;15376;48.540;9.268;2023-11-18T02:01:18;5.07;;;4.67;;
2320;SDS011;15376;48.540;9.268;2023-11-18T02:03:44;3.90;;;3.60;;
2320;SDS011;15376;48.540;9.268;2023-11-18T02:06:10;4.73;;;4.33;;
2320;SDS011;15376;48.540;9.268;2023-11-18T02:08:36;4.27;;;3.97;;
2320;SDS011;15376;48.540;9.268;2023-11-18T02:11:20;4.37;;;4.00;;
2320;SDS011;15376;48.540;9.268;2023-11-18T02:13:56;4.53;;;3.90;;
2320;SDS011;15376;48.540;9.268;2023-11-18T02:16:27;4.53;;;3.77;;
2320;SDS011;15376;48.540;9.268;2023-11-18T02:18:53;4.30;;;3.90;;
2320;SDS011;15376;48.540;9.268;2023-11-18T02:21:19;4.90;;;4.50;;
2320;SDS011;15376;48.540;9.268;2023-11-18T02:23:48;4.60;;;4.30;;
2320;SDS011;15376;48.540;9.268;2023-11-18T02:26:21;5.67;;;4.70;;
2320;SDS011;15376;48.540;9.268;2023-11-18T02:28:47;6.30;;;5.10;;
2320;SDS011;15376;48.540;9.268;2023-11-18T02:31:15;5.30;;;4.73;;
2320;SDS011;15376;48.540;9.268;2023-11-18T02:33:59;4.83;;;4.43;;
2320;SDS011;15376;48.540;9.268;2023-11-18T02:36:33;5.30;;;4.80;;
2320;SDS011;15376;48.540;9.268;2023-11-18T02:39:04;8.60;;;4.37;;
2320;SDS011;15376;48.540;9.268;2023-11-18T02:41:34;4.77;;;4.37;;
2320;SDS011;15376;48.540;9.268;2023-11-18T02:44:01;5.80;;;4.57;;
2320;SDS011;15376;48.540;9.268;2023-11-18T02:46:33;4.37;;;3.97;;
2320;SDS011;15376;48.540;9.268;2023-11-18T02:49:00;4.70;;;4.30;;
2320;SDS011;15376;48.540;9.268;2023-11-18T02:51:26;4.13;;;3.83;;
2320;SDS011;15376;48.540;9.268;2023-11-18T02:53:51;3.90;;;3.60;;
2320;SDS011;15376;48.540;9.268;2023-11-18T02:56:16;5.13;;;4.63;;
2320;SDS011;15376;48.540;9.268;2023-11-18T02:58:43;4.93;;;4.43;;
2320;SDS011;15376;48.540;9.268;2023-11-18T03:01:09;5.70;;;5.20;;
2320;SDS011;15376;48.540;9.268;2023-11-18T03:03:34;5.23;;;4.83;;
2320;SDS011;15376;48.540;9.268;2023-11-18T03:06:00;4.90;;;4.50;;
2320;SDS011;15376;48.540;9.268;2023-11-18T03:08:25;5.07;;;4.67;;
2320;SDS011;15376;48.540;9.268;2023-11-18T03:10:53;5.77;;;5.17;;
2320;SDS011;15376;48.540;9.268;2023-11-18T03:13:19;5.23;;;4.73;;
2320;SDS011;15376;48.540;9.268;2023-11-18T03:15:44;7.43;;;4.20;;
2320;SDS011;15376;48.540;9.268;2023-11-18T03:18:12;4.67;;;4.27;;
2320;SDS011;15376;48.540;9.268;2023-11-18T03:20:38;4.33;;;3.93;;
2320;SDS011;15376;48.540;9.268;2023-11-18T03:23:03;4.30;;;4.00;;
2320;SDS011;15376;48.540;9.268;2023-11-18T03:25:29;4.37;;;3.97;;
2320;SDS011;15376;48.540;9.268;2023-11-18T03:27:54;5.57;;;5.00;;
2320;SDS011;15376;48.540;9.268;2023-11-18T03:30:19;5.13;;;4.33;;
2320;SDS011;15376;48.540;9.268;2023-11-18T03:32:45;5.33;;;4.83;;
2320;SDS011;15376;48.540;9.268;2023-11-18T03:35:10;5.00;;;4.60;;
2320;SDS011;15376;48.540;9.268;2023-11-18T03:37:36;6.27;;;4.90;;
2320;SDS011;15376;48.540;9.268;2023-11-18T03:40:04;5.10;;;4.60;;
2320;SDS011;15376;48.540;9.268;2023-11-18T03:42:31;4.97;;;4.57;;
2320;SDS011;15376;48.540;9.268;2023-11-18T03:44:56;10.10;;;4.77;;
2320;SDS011;15376;48.540;9.268;2023-11-18T03:47:22;4.40;;;4.00;;
2320;SDS011;15376;48.540;9.268;2023-11-18T03:49:49;4.80;;;4.40;;
2320;SDS011;15376;48.540;9.268;2023-11-18T03:52:15;7.77;;;4.77;;
2320;SDS011;15376;48.540;9.268;2023-11-18T03:54:40;4.80;;;4.30;;
2320;SDS011;15376;48.540;9.268;2023-11-18T03:57:06;4.60;;;4.20;;
2320;SDS011;15376;48.540;9.268;2023-11-18T03:59:32;5.50;;;5.00;;
2320;SDS011;15376;48.540;9.268;2023-11-18T04:01:57;5.37;;;4.87;;
2320;SDS011;15376;48.540;9.268;2023-11-18T04:04:23;5.90;;;4.40;;
2320;SDS011;15376;48.540;9.268;2023-11-18T04:06:48;5.70;;;5.20;;
2320;SDS011;15376;48.540;9.268;2023-11-18T04:09:13;5.90;;;5.13;;
2320;SDS011;15376;48.540;9.268;2023-11-18T04:11:39;7.10;;;5.90;;
2320;SDS011;15376;48.540;9.268;2023-11-18T04:14:05;5.60;;;5.10;;
2320;SDS011;15376;48.540;9.268;2023-11-18T04:16:30;7.77;;;6.20;;
2320;SDS011;15376;48.540;9.268;2023-11-18T04:18:56;5.73;;;5.17;;
2320;SDS011;15376;48.540;9.268;2023-11-18T04:21:22;5.60;;;4.93;;
2320;SDS011;15376;48.540;9.268;2023-11-18T04:23:47;6.50;;;4.97;;
2320;SDS011;15376;48.540;9.268;2023-11-18T04:26:13;10.00;;;6.80;;
2320;SDS011;15376;48.540;9.268;2023-11-18T04:28:38;5.47;;;4.97;;
2320;SDS011;15376;48.540;9.268;2023-11-18T04:31:04;5.77;;;5.17;;
2320;SDS011;15376;48.540;9.268;2023-11-18T04:33:32;10.33;;;6.00;;
2320;SDS011;15376;48.540;9.268;2023-11-18T04:35:58;5.60;;;4.93;;
2320;SDS011;15376;48.540;9.268;2023-11-18T04:38:24;6.07;;;5.57;;
2320;SDS011;15376;48.540;9.268;2023-11-18T04:40:51;5.53;;;5.03;;
2320;SDS011;15376;48.540;9.268;2023-11-18T04:43:19;5.00;;;4.50;;
2320;SDS011;15376;48.540;9.268;2023-11-18T04:45:45;5.47;;;4.97;;
2320;SDS011;15376;48.540;9.268;2023-11-18T04:48:11;6.33;;;5.20;;
2320;SDS011;15376;48.540;9.268;2023-11-18T04:50:39;5.40;;;4.90;;
2320;SDS011;15376;48.540;9.268;2023-11-18T04:53:04;6.00;;;4.80;;
2320;SDS011;15376;48.540;9.268;2023-11-18T04:55:33;5.43;;;4.60;;
2320;SDS011;15376;48.540;9.268;2023-11-18T04:57:58;5.47;;;4.97;;
2320;SDS011;15376;48.540;9.268;2023-11-18T05:00:24;5.87;;;5.37;;
2320;SDS011;15376;48.540;9.268;2023-11-18T05:02:49;6.20;;;5.60;;
2320;SDS011;15376;48.540;9.268;2023-11-18T05:05:15;7.30;;;5.60;;
2320;SDS011;15376;48.540;9.268;2023-11-18T05:07:41;5.73;;;5.17;;
2320;SDS011;15376;48.540;9.268;2023-11-18T05:10:07;8.93;;;6.07;;
2320;SDS011;15376;48.540;9.268;2023-11-18T05:12:33;8.73;;;7.73;;
2320;SDS011;15376;48.540;9.268;2023-11-18T05:14:59;8.47;;;7.67;;
2320;SDS011;15376;48.540;9.268;2023-11-18T05:17:25;8.80;;;7.37;;
2320;SDS011;15376;48.540;9.268;2023-11-18T05:19:51;8.43;;;7.60;;
2320;SDS011;15376;48.540;9.268;2023-11-18T05:22:17;8.20;;;6.50;;
2320;SDS011;15376;48.540;9.268;2023-11-18T05:24:43;7.97;;;6.27;;
2320;SDS011;15376;48.540;9.268;2023-11-18T05:27:08;8.27;;;7.27;;
2320;SDS011;15376;48.540;9.268;2023-11-18T05:29:34;9.37;;;8.33;;
2320;SDS011;15376;48.540;9.268;2023-11-18T05:31:59;8.70;;;7.80;;
2320;SDS011;15376;48.540;9.268;2023-11-18T05:34:24;8.47;;;7.63;;
2320;SDS011;15376;48.540;9.268;2023-11-18T05:36:50;8.50;;;7.00;;
2320;SDS011;15376;48.540;9.268;2023-11-18T05:39:22;8.30;;;7.50;;
2320;SDS011;15376;48.540;9.268;2023-11-18T05:41:49;11.10;;;7.87;;
2320;SDS011;15376;48.540;9.268;2023-11-18T05:44:16;8.43;;;7.40;;
2320;SDS011;15376;48.540;9.268;2023-11-18T05:46:46;9.83;;;8.60;;
2320;SDS011;15376;48.540;9.268;2023-11-18T05:49:12;15.23;;;9.40;;
2320;SDS011;15376;48.540;9.268;2023-11-18T05:51:38;9.80;;;8.50;;
2320;SDS011;15376;48.540;9.268;2023-11-18T05:54:05;7.80;;;6.90;;
2320;SDS011;15376;48.540;9.268;2023-11-18T05:56:31;7.93;;;7.17;;
2320;SDS011;15376;48.540;9.268;2023-11-18T05:58:57;7.63;;;6.33;;
2320;SDS011;15376;48.540;9.268;2023-11-18T06:01:23;9.80;;;7.27;;
2320;SDS011;15376;48.540;9.268;2023-11-18T06:03:49;7.63;;;6.53;;
2320;SDS011;15376;48.540;9.268;2023-11-18T06:06:15;9.73;;;7.57;;
2320;SDS011;15376;48.540;9.268;2023-11-18T06:08:41;6.83;;;6.23;;
2320;SDS011;15376;48.540;9.268;2023-11-18T06:11:11;7.77;;;6.97;;
2320;SDS011;15376;48.540;9.268;2023-11-18T06:16:07;7.80;;;6.77;;
2320;SDS011;15376;48.540;9.268;2023-11-18T06:18:34;7.00;;;6.40;;
2320;SDS011;15376;48.540;9.268;2023-11-18T06:21:01;13.37;;;9.57;;
2320;SDS011;15376;48.540;9.268;2023-11-18T06:23:26;7.53;;;6.47;;
2320;SDS011;15376;48.540;9.268;2023-11-18T06:25:51;9.10;;;7.57;;
2320;SDS011;15376;48.540;9.268;2023-11-18T06:28:17;8.60;;;6.27;;
2320;SDS011;15376;48.540;9.268;2023-11-18T06:30:43;7.07;;;6.37;;
2320;SDS011;15376;48.540;9.268;2023-11-18T06:33:09;8.40;;;6.80;;
2320;SDS011;15376;48.540;9.268;2023-11-18T06:35:34;6.73;;;6.13;;
2320;SDS011;15376;48.540;9.268;2023-11-18T06:38:00;7.67;;;6.97;;
2320;SDS011;15376;48.540;9.268;2023-11-18T06:40:25;7.40;;;6.70;;
2320;SDS011;15376;48.540;9.268;2023-11-18T06:42:52;9.23;;;7.80;;
2320;SDS011;15376;48.540;9.268;2023-11-18T06:45:19;8.57;;;6.97;;
2320;SDS011;15376;48.540;9.268;2023-11-18T06:47:47;8.50;;;7.00;;
2320;SDS011;15376;48.540;9.268;2023-11-18T06:50:14;8.87;;;7.97;;
2320;SDS011;15376;48.540;9.268;2023-11-18T06:52:40;9.60;;;8.80;;
2320;SDS011;15376;48.540;9.268;2023-11-18T06:55:09;9.57;;;8.40;;
2320;SDS011;15376;48.540;9.268;2023-11-18T06:57:38;10.10;;;8.70;;
2320;SDS011;15376;48.540;9.268;2023-11-18T07:00:04;9.73;;;8.73;;
2320;SDS011;15376;48.540;9.268;2023-11-18T07:02:34;9.00;;;8.07;;
2320;SDS011;15376;48.540;9.268;2023-11-18T07:04:59;12.00;;;8.70;;
2320;SDS011;15376;48.540;9.268;2023-11-18T07:07:24;8.63;;;7.13;;
2320;SDS011;15376;48.540;9.268;2023-11-18T07:09:50;10.87;;;8.60;;
2320;SDS011;15376;48.540;9.268;2023-11-18T07:12:17;14.77;;;9.53;;
2320;SDS011;15376;48.540;9.268;2023-11-18T07:14:44;11.53;;;8.60;;
2320;SDS011;15376;48.540;9.268;2023-11-18T07:17:10;11.10;;;8.60;;
2320;SDS011;15376;48.540;9.268;2023-11-18T07:19:35;9.13;;;8.10;;
2320;SDS011;15376;48.540;9.268;2023-11-18T07:22:00;10.03;;;8.03;;
2320;SDS011;15376;48.540;9.268;2023-11-18T07:24:27;9.00;;;8.10;;
2320;SDS011;15376;48.540;9.268;2023-11-18T07:26:55;15.90;;;8.37;;
2320;SDS011;15376;48.540;9.268;2023-11-18T07:29:20;9.20;;;8.30;;
2320;SDS011;15376;48.540;9.268;2023-11-18T07:31:45;8.10;;;7.30;;
2320;SDS011;15376;48.540;9.268;2023-11-18T07:34:11;8.70;;;7.90;;
2320;SDS011;15376;48.540;9.268;2023-11-18T07:36:36;7.93;;;7.13;;
2320;SDS011;15376;48.540;9.268;2023-11-18T07:39:02;8.90;;;8.10;;
2320;SDS011;15376;48.540;9.268;2023-11-18T07:41:28;7.20;;;6.50;;
2320;SDS011;15376;48.540;9.268;2023-11-18T07:43:56;8.83;;;8.07;;
2320;SDS011;15376;48.540;9.268;2023-11-18T07:46:30;7.43;;;6.40;;
2320;SDS011;15376;48.540;9.268;2023-11-18T07:48:56;7.10;;;6.50;;
2320;SDS011;15376;48.540;9.268;2023-11-18T07:51:22;7.37;;;6.20;;
2320;SDS011;15376;48.540;9.268;2023-11-18T07:53:48;7.60;;;6.80;;
2320;SDS011;15376;48.540;9.268;2023-11-18T07:56:14;10.23;;;6.70;;
2320;SDS011;15376;48.540;9.268;2023-11-18T07:58:41;8.20;;;6.50;;
2320;SDS011;15376;48.540;9.268;2023-11-18T08:01:13;6.70;;;5.97;;
2320;SDS011;15376;48.540;9.268;2023-11-18T08:03:41;5.97;;;5.37;;
2320;SDS011;15376;48.540;9.268;2023-11-18T08:06:07;6.67;;;5.63;;
2320;SDS011;15376;48.540;9.268;2023-11-18T08:08:33;6.30;;;5.80;;
2320;SDS011;15376;48.540;9.268;2023-11-18T08:10:59;6.63;;;6.03;;
2320;SDS011;15376;48.540;9.268;2023-11-18T08:13:25;6.67;;;6.07;;
2320;SDS011;15376;48.540;9.268;2023-11-18T08:15:51;6.17;;;5.67;;
2320;SDS011;15376;48.540;9.268;2023-11-18T08:18:17;6.40;;;5.80;;
2320;SDS011;15376;48.540;9.268;2023-11-18T08:20:43;6.10;;;5.60;;
2320;SDS011;15376;48.540;9.268;2023-11-18T08:23:09;5.90;;;5.33;;
2320;SDS011;15376;48.540;9.268;2023-11-18T08:25:34;5.87;;;5.37;;
2320;SDS011;15376;48.540;9.268;2023-11-18T08:28:03;5.73;;;5.10;;
2320;SDS011;15376;48.540;9.268;2023-11-18T08:30:29;4.80;;;4.40;;
2320;SDS011;15376;48.540;9.268;2023-11-18T08:32:55;4.63;;;4.13;;
2320;SDS011;15376;48.540;9.268;2023-11-18T08:35:20;5.00;;;4.47;;
2320;SDS011;15376;48.540;9.268;2023-11-18T08:37:47;3.87;;;3.57;;
2320;SDS011;15376;48.540;9.268;2023-11-18T08:40:12;3.63;;;3.40;;
2320;SDS011;15376;48.540;9.268;2023-11-18T08:42:44;3.77;;;3.47;;
2320;SDS011;15376;48.540;9.268;2023-11-18T08:45:21;5.90;;;4.30;;
2320;SDS011;15376;48.540;9.268;2023-11-18T08:47:52;4.30;;;4.00;;
2320;SDS011;15376;48.540;9.268;2023-11-18T08:50:18;4.47;;;3.87;;
2320;SDS011;15376;48.540;9.268;2023-11-18T08:52:43;4.57;;;3.90;;
2320;SDS011;15376;48.540;9.268;2023-11-18T08:55:12;5.30;;;4.20;;
2320;SDS011;15376;48.540;9.268;2023-11-18T08:57:43;4.10;;;3.80;;
2320;SDS011;15376;48.540;9.268;2023-11-18T09:00:25;4.77;;;4.33;;
2320;SDS011;15376;48.540;9.268;2023-11-18T09:03:13;3.80;;;3.50;;
2320;SDS011;15376;48.540;9.268;2023-11-18T09:05:46;4.57;;;4.10;;
2320;SDS011;15376;48.540;9.268;2023-11-18T09:08:25;4.90;;;4.37;;
2320;SDS011;15376;48.540;9.268;2023-11-18T09:10:55;5.20;;;3.23;;
2320;SDS011;15376;48.540;9.268;2023-11-18T09:13:22;4.20;;;3.57;;
2320;SDS011;15376;48.540;9.268;2023-11-18T09:15:53;4.07;;;3.77;;
2320;SDS011;15376;48.540;9.268;2023-11-18T09:18:23;3.70;;;3.40;;
2320;SDS011;15376;48.540;9.268;2023-11-18T09:20:50;4.23;;;3.83;;
2320;SDS011;15376;48.540;9.268;2023-11-18T09:23:17;3.57;;;3.27;;
2320;SDS011;15376;48.540;9.268;2023-11-18T09:25:45;3.70;;;3.40;;
2320;SDS011;15376;48.540;9.268;2023-11-18T09:28:13;4.17;;;3.83;;
2320;SDS011;15376;48.540;9.268;2023-11-18T09:30:39;8.07;;;3.27;;
2320;SDS011;15376;48.540;9.268;2023-11-18T09:33:14;3.53;;;3.33;;
2320;SDS011;15376;48.540;9.268;2023-11-18T09:35:50;4.27;;;3.97;;
2320;SDS011;15376;48.540;9.268;2023-11-18T09:38:26;4.60;;;3.93;;
2320;SDS011;15376;48.540;9.268;2023-11-18T09:40:58;3.80;;;3.50;;
2320;SDS011;15376;48.540;9.268;2023-11-18T09:43:28;4.37;;;3.97;;
2320;SDS011;15376;48.540;9.268;2023-11-18T09:45:58;5.50;;;4.40;;
2320;SDS011;15376;48.540;9.268;2023-11-18T09:48:33;4.00;;;3.50;;
2320;SDS011;15376;48.540;9.268;2023-11-18T09:51:05;4.63;;;4.23;;
2320;SDS011;15376;48.540;9.268;2023-11-18T09:53:32;4.07;;;3.77;;
2320;SDS011;15376;48.540;9.268;2023-11-18T09:56:07;4.87;;;4.47;;
2320;SDS011;15376;48.540;9.268;2023-11-18T09:58:40;4.23;;;3.93;;
2320;SDS011;15376;48.540;9.268;2023-11-18T10:01:13;4.57;;;4.20;;
2320;SDS011;15376;48.540;9.268;2023-11-18T10:03:43;4.87;;;4.37;;
2320;SDS011;15376;48.540;9.268;2023-11-18T10:06:11;4.60;;;3.80;;
2320;SDS011;15376;48.540;9.268;2023-11-18T10:08:39;4.17;;;3.87;;
2320;SDS011;15376;48.540;9.268;2023-11-18T10:11:05;4.60;;;4.20;;
2320;SDS011;15376;48.540;9.268;2023-11-18T10:13:34;4.77;;;4.37;;
2320;SDS011;15376;48.540;9.268;2023-11-18T10:16:05;4.30;;;3.90;;
2320;SDS011;15376;48.540;9.268;2023-11-18T10:18:34;5.43;;;4.93;;
2320;SDS011;15376;48.540;9.268;2023-11-18T10:21:03;4.37;;;4.07;;
2320;SDS011;15376;48.540;9.268;2023-11-18T10:23:36;4.23;;;3.93;;
2320;SDS011;15376;48.540;9.268;2023-11-18T10:26:02;4.33;;;4.00;;
2320;SDS011;15376;48.540;9.268;2023-11-18T10:30:58;4.47;;;4.00;;
2320;SDS011;15376;48.540;9.268;2023-11-18T10:35:57;4.77;;;3.97;;
2320;SDS011;15376;48.540;9.268;2023-11-18T10:38:23;4.23;;;3.93;;
2320;SDS011;15376;48.540;9.268;2023-11-18T10:40:52;5.67;;;3.97;;
2320;SDS011;15376;48.540;9.268;2023-11-18T10:43:20;4.60;;;3.13;;
2320;SDS011;15376;48.540;9.268;2023-11-18T10:45:49;4.07;;;3.70;;
2320;SDS011;15376;48.540;9.268;2023-11-18T10:48:17;4.63;;;4.33;;
2320;SDS011;15376;48.540;9.268;2023-11-18T10:50:45;4.93;;;4.43;;
2320;SDS011;15376;48.540;9.268;2023-11-18T10:53:12;4.10;;;3.80;;
2320;SDS011;15376;48.540;9.268;2023-11-18T10:55:38;7.47;;;4.30;;
2320;SDS011;15376;48.540;9.268;2023-11-18T10:58:05;6.83;;;4.43;;
2320;SDS011;15376;48.540;9.268;2023-11-18T11:00:51;4.77;;;4.03;;
2320;SDS011;15376;48.540;9.268;2023-11-18T11:03:21;4.83;;;4.03;;
2320;SDS011;15376;48.540;9.268;2023-11-18T11:05:49;4.30;;;3.70;;
2320;SDS011;15376;48.540;9.268;2023-11-18T11:08:15;3.97;;;3.60;;
2320;SDS011;15376;48.540;9.268;2023-11-18T11:10:41;4.97;;;4.47;;
2320;SDS011;15376;48.540;9.268;2023-11-18T11:13:08;4.13;;;3.73;;
2320;SDS011;15376;48.540;9.268;2023-11-18T11:15:36;3.80;;;3.37;;
2320;SDS011;15376;48.540;9.268;2023-11-18T11:18:08;3.77;;;3.47;;
2320;SDS011;15376;48.540;9.268;2023-11-18T11:20:47;3.37;;;3.00;;
2320;SDS011;15376;48.540;9.268;2023-11-18T11:28:55;3.20;;;2.90;;
2320;SDS011;15376;48.540;9.268;2023-11-18T11:34:04;6.50;;;2.63;;
2320;SDS011;15376;48.540;9.268;2023-11-18T11:36:41;3.90;;;3.23;;
2320;SDS011;15376;48.540;9.268;2023-11-18T11:39:11;2.70;;;2.47;;
2320;SDS011;15376;48.540;9.268;2023-11-18T11:41:44;5.27;;;2.70;;
2320;SDS011;15376;48.540;9.268;2023-11-18T11:44:15;3.23;;;2.93;;
2320;SDS011;15376;48.540;9.268;2023-11-18T11:46:44;5.33;;;3.00;;
2320;SDS011;15376;48.540;9.268;2023-11-18T11:49:17;6.50;;;3.03;;
2320;SDS011;15376;48.540;9.268;2023-11-18T11:54:21;9.23;;;4.20;;
2320;SDS011;15376;48.540;9.268;2023-11-18T11:56:55;6.70;;;5.20;;
2320;SDS011;15376;48.540;9.268;2023-11-18T12:02:24;4.77;;;4.30;;
2320;SDS011;15376;48.540;9.268;2023-11-18T12:04:55;5.10;;;4.60;;
2320;SDS011;15376;48.540;9.268;2023-11-18T12:07:24;5.47;;;4.97;;
2320;SDS011;15376;48.540;9.268;2023-11-18T12:09:55;5.67;;;5.13;;
2320;SDS011;15376;48.540;9.268;2023-11-18T12:12:23;5.70;;;5.10;;
2320;SDS011;15376;48.540;9.268;2023-11-18T12:23:19;5.10;;;4.60;;
2320;SDS011;15376;48.540;9.268;2023-11-18T12:25:48;5.50;;;5.00;;
2320;SDS011;15376;48.540;9.268;2023-11-18T12:28:19;5.13;;;4.73;;
2320;SDS011;15376;48.540;9.268;2023-11-18T12:30:47;5.83;;;5.33;;
2320;SDS011;15376;48.540;9.268;2023-11-18T12:33:52;4.97;;;4.57;;
2320;SDS011;15376;48.540;9.268;2023-11-18T12:36:37;4.97;;;4.57;;
2320;SDS011;15376;48.540;9.268;2023-11-18T12:42:37;2.77;;;2.40;;
2320;SDS011;15376;48.540;9.268;2023-11-18T12:45:36;2.97;;;2.77;;
2320;SDS011;15376;48.540;9.268;2023-11-18T12:48:08;2.80;;;1.77;;
2320;SDS011;15376;48.540;9.268;2023-11-18T12:50:41;1.70;;;1.60;;
2320;SDS011;15376;48.540;9.268;2023-11-18T12:53:10;3.20;;;1.77;;
2320;SDS011;15376;48.540;9.268;2023-11-18T12:55:39;2.63;;;1.60;;
2320;SDS011;15376;48.540;9.268;2023-11-18T12:58:07;2.50;;;2.10;;
2320;SDS011;15376;48.540;9.268;2023-11-18T13:00:32;2.63;;;2.30;;
2320;SDS011;15376;48.540;9.268;2023-11-18T13:02:59;2.07;;;1.80;;
2320;SDS011;15376;48.540;9.268;2023-11-18T13:05:25;2.40;;;2.00;;
2320;SDS011;15376;48.540;9.268;2023-11-18T13:07:57;6.40;;;2.33;;
2320;SDS011;15376;48.540;9.268;2023-11-18T13:10:24;2.00;;;1.87;;
2320;SDS011;15376;48.540;9.268;2023-11-18T13:12:52;2.10;;;1.90;;
2320;SDS011;15376;48.540;9.268;2023-11-18T13:15:18;2.20;;;1.97;;
2320;SDS011;15376;48.540;9.268;2023-11-18T13:17:56;2.43;;;2.23;;
2320;SDS011;15376;48.540;9.268;2023-11-18T13:20:25;2.97;;;2.40;;
2320;SDS011;15376;48.540;9.268;2023-11-18T13:22:51;2.60;;;2.20;;
2320;SDS011;15376;48.540;9.268;2023-11-18T13:25:17;2.60;;;2.40;;
2320;SDS011;15376;48.540;9.268;2023-11-18T13:27:43;2.80;;;2.50;;
2320;SDS011;15376;48.540;9.268;2023-11-18T13:30:09;2.97;;;2.60;;
2320;SDS011;15376;48.540;9.268;2023-11-18T13:32:41;2.30;;;2.10;;
2320;SDS011;15376;48.540;9.268;2023-11-18T13:35:08;3.07;;;2.20;;
2320;SDS011;15376;48.540;9.268;2023-11-18T13:37:34;3.47;;;3.00;;
2320;SDS011;15376;48.540;9.268;2023-11-18T13:39:59;2.23;;;2.03;;
2320;SDS011;15376;48.540;9.268;2023-11-18T13:42:26;2.40;;;2.20;;
2320;SDS011;15376;48.540;9.268;2023-11-18T13:44:59;2.93;;;2.73;;
2320;SDS011;15376;48.540;9.268;2023-11-18T13:47:26;7.43;;;2.37;;
2320;SDS011;15376;48.540;9.268;2023-11-18T13:49:56;2.43;;;2.23;;
2320;SDS011;15376;48.540;9.268;2023-11-18T13:52:23;3.73;;;2.90;;
2320;SDS011;15376;48.540;9.268;2023-11-18T13:54:50;12.83;;;8.60;;
2320;SDS011;15376;48.540;9.268;2023-11-18T13:57:20;5.20;;;4.40;;
2320;SDS011;15376;48.540;9.268;2023-11-18T13:59:48;2.97;;;2.67;;
2320;SDS011;15376;48.540;9.268;2023-11-18T14:02:17;2.43;;;2.10;;
2320;SDS011;15376;48.540;9.268;2023-11-18T14:04:43;4.13;;;2.60;;
2320;SDS011;15376;48.540;9.268;2023-11-18T14:07:09;2.33;;;2.17;;
2320;SDS011;15376;48.540;9.268;2023-11-18T14:09:35;5.57;;;3.63;;
2320;SDS011;15376;48.540;9.268;2023-11-18T14:12:05;2.40;;;2.20;;
2320;SDS011;15376;48.540;9.268;2023-11-18T14:14:32;6.93;;;6.30;;
2320;SDS011;15376;48.540;9.268;2023-11-18T14:16:58;4.40;;;3.20;;
2320;SDS011;15376;48.540;9.268;2023-11-18T14:19:24;5.17;;;3.80;;
2320;SDS011;15376;48.540;9.268;2023-11-18T14:21:50;4.90;;;4.03;;
2320;SDS011;15376;48.540;9.268;2023-11-18T14:24:18;7.47;;;6.70;;
2320;SDS011;15376;48.540;9.268;2023-11-18T14:26:44;3.40;;;2.63;;
2320;SDS011;15376;48.540;9.268;2023-11-18T14:29:09;11.80;;;10.70;;
2320;SDS011;15376;48.540;9.268;2023-11-18T14:31:36;3.50;;;3.20;;
2320;SDS011;15376;48.540;9.268;2023-11-18T14:34:02;6.83;;;6.27;;
2320;SDS011;15376;48.540;9.268;2023-11-18T14:36:28;2.40;;;2.20;;
2320;SDS011;15376;48.540;9.268;2023-11-18T14:38:54;3.83;;;3.47;;
2320;SDS011;15376;48.540;9.268;2023-11-18T14:41:20;8.97;;;3.73;;
2320;SDS011;15376;48.540;9.268;2023-11-18T14:43:49;2.90;;;2.70;;
2320;SDS011;15376;48.540;9.268;2023-11-18T14:46:18;3.60;;;3.00;;
2320;SDS011;15376;48.540;9.268;2023-11-18T14:48:43;3.13;;;2.83;;
2320;SDS011;15376;48.540;9.268;2023-11-18T14:51:09;4.30;;;3.33;;
2320;SDS011;15376;48.540;9.268;2023-11-18T14:53:35;7.03;;;4.67;;
2320;SDS011;15376;48.540;9.268;2023-11-18T14:56:01;5.93;;;5.33;;
2320;SDS011;15376;48.540;9.268;2023-11-18T14:58:29;5.73;;;5.07;;
2320;SDS011;15376;48.540;9.268;2023-11-18T15:00:55;6.30;;;4.50;;
2320;SDS011;15376;48.540;9.268;2023-11-18T15:03:21;3.00;;;2.60;;
2320;SDS011;15376;48.540;9.268;2023-11-18T15:05:50;2.60;;;2.40;;
2320;SDS011;15376;48.540;9.268;2023-11-18T15:08:15;2.47;;;2.27;;
2320;SDS011;15376;48.540;9.268;2023-11-18T15:10:41;3.10;;;2.80;;
2320;SDS011;15376;48.540;9.268;2023-11-18T15:13:07;2.23;;;2.03;;
2320;SDS011;15376;48.540;9.268;2023-11-18T15:15:42;3.60;;;3.20;;
2320;SDS011;15376;48.540;9.268;2023-11-18T15:18:08;9.60;;;3.00;;
2320;SDS011;15376;48.540;9.268;2023-11-18T15:20:35;2.47;;;2.27;;
2320;SDS011;15376;48.540;9.268;2023-11-18T15:23:04;3.33;;;2.73;;
2320;SDS011;15376;48.540;9.268;2023-11-18T15:25:29;3.00;;;2.73;;
2320;SDS011;15376;48.540;9.268;2023-11-18T15:27:55;3.53;;;3.10;;
2320;SDS011;15376;48.540;9.268;2023-11-18T15:30:21;4.87;;;2.40;;
2320;SDS011;15376;48.540;9.268;2023-11-18T15:32:49;2.40;;;1.90;;
2320;SDS011;15376;48.540;9.268;2023-11-18T15:35:15;1.70;;;1.60;;
2320;SDS011;15376;48.540;9.268;2023-11-18T15:37:42;6.43;;;3.50;;